Time;durP1;ratioP1;P1;durP2;ratioP2;P2;SDS_P1;SDS_P2;PMS_P1;PMS_P2;Temp;Humidity;BMP_temperature;BMP_pressure;BME280_temperature;BME280_humidity;BME280_pressure;Samples;Min_cycle;Max_cycle;Signal;HPM_P1;HPM_P2
2023/09/03 00:01:49;;;;;;;8.50;6.50;;;;;;;;;;774460;180;919063;-63
2023/09/03 00:04:14;;;;;;;9.60;5.67;;;;;;;;;;774730;181;919528;-59
2023/09/03 00:06:40;;;;;;;9.73;6.60;;;;;;;;;;774278;180;918683;-62
2023/09/03 00:09:06;;;;;;;13.20;6.70;;;;;;;;;;777624;179;919561;-59
2023/09/03 00:11:32;;;;;;;11.13;7.70;;;;;;;;;;777344;179;817617;-59
2023/09/03 00:13:58;;;;;;;6.93;6.10;;;;;;;;;;780643;178;817049;-59
2023/09/03 00:16:24;;;;;;;10.67;6.50;;;;;;;;;;773165;180;919206;-63
2023/09/03 00:18:50;;;;;;;8.27;6.50;;;;;;;;;;775600;180;919305;-62
2023/09/03 00:21:16;;;;;;;9.13;6.80;;;;;;;;;;779067;180;919959;-61
2023/09/03 00:23:42;;;;;;;9.10;7.40;;;;;;;;;;770329;180;919468;-58
2023/09/03 00:26:08;;;;;;;14.10;7.00;;;;;;;;;;774015;179;919696;-63
2023/09/03 00:28:34;;;;;;;8.15;5.70;;;;;;;;;;771341;181;919954;-62
2023/09/03 00:31:00;;;;;;;8.37;5.53;;;;;;;;;;768981;181;923659;-58
2023/09/03 00:33:27;;;;;;;8.82;5.78;;;;;;;;;;770012;178;914777;-59
2023/09/03 00:35:51;;;;;;;6.87;5.30;;;;;;;;;;775233;181;917997;-59
2023/09/03 00:38:17;;;;;;;9.23;6.10;;;;;;;;;;775444;180;693261;-59
2023/09/03 00:40:43;;;;;;;8.17;6.57;;;;;;;;;;771012;178;912966;-62
2023/09/03 00:43:09;;;;;;;8.77;6.50;;;;;;;;;;770941;180;938820;-63
2023/09/03 00:45:35;;;;;;;8.60;6.27;;;;;;;;;;780163;180;927598;-63
2023/09/03 00:48:01;;;;;;;11.20;5.97;;;;;;;;;;775473;180;918731;-59
2023/09/03 00:50:26;;;;;;;14.13;6.60;;;;;;;;;;770729;177;916299;-59
2023/09/03 00:52:52;;;;;;;6.10;5.40;;;;;;;;;;769253;181;823429;-58
2023/09/03 00:55:18;;;;;;;7.77;4.93;;;;;;;;;;768548;181;904714;-62
2023/09/03 00:57:44;;;;;;;8.87;5.83;;;;;;;;;;773316;178;936536;-59
2023/09/03 01:00:11;;;;;;;9.10;6.00;;;;;;;;;;775782;179;920690;-63
2023/09/03 01:02:36;;;;;;;11.80;6.03;;;;;;;;;;779074;178;919108;-62
2023/09/03 01:05:03;;;;;;;9.00;5.87;;;;;;;;;;772223;181;919069;-59
2023/09/03 01:07:28;;;;;;;12.73;5.70;;;;;;;;;;770820;181;918882;-59
2023/09/03 01:09:54;;;;;;;8.20;5.83;;;;;;;;;;779997;181;918248;-59
2023/09/03 01:12:19;;;;;;;9.77;6.57;;;;;;;;;;776772;180;920985;-62
2023/09/03 01:14:51;;;;;;;6.63;5.90;;;;;;;;;;773513;180;921840;-59
2023/09/03 01:17:18;;;;;;;10.73;6.18;;;;;;;;;;773271;180;919460;-59
2023/09/03 01:19:47;;;;;;;9.07;5.70;;;;;;;;;;770207;182;917388;-59
2023/09/03 01:22:28;;;;;;;7.77;5.83;;;;;;;;;;776046;180;816963;-59
2023/09/03 01:25:09;;;;;;;10.00;5.80;;;;;;;;;;775002;179;628899;-59
2023/09/03 01:27:36;;;;;;;6.93;5.63;;;;;;;;;;773279;178;627094;-59
2023/09/03 01:30:03;;;;;;;7.23;5.20;;;;;;;;;;780128;177;628797;-59
2023/09/03 01:32:28;;;;;;;10.00;6.00;;;;;;;;;;781602;177;620798;-64
2023/09/03 01:34:54;;;;;;;9.23;7.03;;;;;;;;;;775846;181;641950;-66
2023/09/03 01:37:20;;;;;;;10.03;7.27;;;;;;;;;;778374;178;637172;-59
2023/09/03 01:39:46;;;;;;;9.53;6.37;;;;;;;;;;782993;180;627036;-59
2023/09/03 01:42:11;;;;;;;15.63;6.57;;;;;;;;;;778330;179;638104;-59
2023/09/03 01:44:37;;;;;;;9.10;6.80;;;;;;;;;;764978;182;918492;-59
2023/09/03 01:47:03;;;;;;;11.00;6.43;;;;;;;;;;779211;180;618638;-59
2023/09/03 01:49:30;;;;;;;11.63;7.40;;;;;;;;;;772750;181;920083;-60
2023/09/03 01:51:58;;;;;;;12.53;7.40;;;;;;;;;;773187;180;919230;-59
2023/09/03 01:54:25;;;;;;;10.87;7.20;;;;;;;;;;772494;180;919455;-59
2023/09/03 01:56:51;;;;;;;8.90;6.13;;;;;;;;;;773722;181;819597;-59
2023/09/03 01:59:18;;;;;;;9.10;7.13;;;;;;;;;;762832;180;919171;-59
2023/09/03 02:01:44;;;;;;;10.43;6.90;;;;;;;;;;771025;180;818536;-59
2023/09/03 02:04:09;;;;;;;8.90;6.90;;;;;;;;;;775073;179;846829;-64
2023/09/03 02:06:35;;;;;;;12.23;6.40;;;;;;;;;;778896;179;863437;-59
2023/09/03 02:09:01;;;;;;;8.17;6.57;;;;;;;;;;772085;177;913103;-65
2023/09/03 02:11:27;;;;;;;10.37;6.33;;;;;;;;;;774386;177;912468;-59
2023/09/03 02:13:53;;;;;;;9.47;6.70;;;;;;;;;;773806;177;918879;-64
2023/09/03 02:16:19;;;;;;;8.23;6.77;;;;;;;;;;777250;180;625800;-59
2023/09/03 02:18:44;;;;;;;13.67;6.90;;;;;;;;;;769520;177;919978;-59
2023/09/03 02:21:10;;;;;;;8.43;6.73;;;;;;;;;;781130;180;920516;-63
2023/09/03 02:23:36;;;;;;;15.43;6.53;;;;;;;;;;772977;180;919624;-63
2023/09/03 02:26:02;;;;;;;8.10;6.60;;;;;;;;;;766168;180;920136;-60
2023/09/03 02:28:28;;;;;;;12.15;6.28;;;;;;;;;;776347;179;921437;-63
2023/09/03 02:30:54;;;;;;;11.60;6.10;;;;;;;;;;772284;180;818171;-62
2023/09/03 02:33:20;;;;;;;9.63;7.07;;;;;;;;;;767527;182;919424;-62
2023/09/03 02:35:46;;;;;;;11.27;6.28;;;;;;;;;;769384;181;919109;-64
2023/09/03 02:38:12;;;;;;;8.40;6.70;;;;;;;;;;775208;181;917131;-63
2023/09/03 02:40:38;;;;;;;9.80;6.72;;;;;;;;;;775439;178;919029;-60
2023/09/03 02:43:04;;;;;;;23.40;6.63;;;;;;;;;;776140;179;920925;-64
2023/09/03 02:45:29;;;;;;;33.80;7.27;;;;;;;;;;779051;177;816617;-59
2023/09/03 02:47:55;;;;;;;13.03;5.53;;;;;;;;;;777840;178;861060;-64
2023/09/03 02:50:21;;;;;;;7.77;5.90;;;;;;;;;;776408;180;919268;-64
2023/09/03 02:52:47;;;;;;;7.70;5.70;;;;;;;;;;774436;180;919575;-60
2023/09/03 02:55:13;;;;;;;28.33;6.70;;;;;;;;;;774669;180;919574;-64
2023/09/03 02:57:39;;;;;;;7.30;6.40;;;;;;;;;;773901;180;919713;-65
2023/09/03 03:00:05;;;;;;;7.43;6.33;;;;;;;;;;774696;180;919094;-65
2023/09/03 03:02:31;;;;;;;7.47;6.37;;;;;;;;;;779887;180;918667;-64
2023/09/03 03:04:57;;;;;;;10.43;6.13;;;;;;;;;;772120;180;916156;-60
2023/09/03 03:07:22;;;;;;;8.07;6.37;;;;;;;;;;773439;179;914825;-64
2023/09/03 03:09:48;;;;;;;8.63;6.53;;;;;;;;;;781169;178;919283;-63
2023/09/03 03:12:14;;;;;;;10.67;7.13;;;;;;;;;;775793;180;919155;-60
2023/09/03 03:14:40;;;;;;;11.63;6.80;;;;;;;;;;770443;181;918844;-60
2023/09/03 03:17:06;;;;;;;8.03;6.77;;;;;;;;;;780323;181;918489;-60
2023/09/03 03:19:32;;;;;;;6.87;5.70;;;;;;;;;;777319;178;917048;-59
2023/09/03 03:21:58;;;;;;;7.80;5.63;;;;;;;;;;774142;180;920475;-60
2023/09/03 03:24:23;;;;;;;8.60;5.90;;;;;;;;;;773610;180;918834;-61
2023/09/03 03:26:49;;;;;;;8.83;6.03;;;;;;;;;;777868;179;919358;-59
2023/09/03 03:29:15;;;;;;;7.93;6.20;;;;;;;;;;775996;177;920685;-59
2023/09/03 03:31:42;;;;;;;7.57;5.60;;;;;;;;;;769352;181;919276;-65
2023/09/03 03:34:07;;;;;;;11.43;6.60;;;;;;;;;;780453;180;920113;-60
2023/09/03 03:36:33;;;;;;;8.27;6.50;;;;;;;;;;775406;179;919198;-63
2023/09/03 03:38:58;;;;;;;8.97;5.93;;;;;;;;;;771248;180;921567;-60
2023/09/03 03:41:24;;;;;;;8.93;6.00;;;;;;;;;;776764;180;919456;-63
2023/09/03 03:43:50;;;;;;;9.80;5.70;;;;;;;;;;773601;180;921066;-59
2023/09/03 03:46:16;;;;;;;8.07;6.20;;;;;;;;;;772354;180;921360;-64
2023/09/03 03:48:42;;;;;;;12.93;6.30;;;;;;;;;;777424;180;816904;-64
2023/09/03 03:51:08;;;;;;;9.90;6.30;;;;;;;;;;771753;180;919156;-59
2023/09/03 03:53:33;;;;;;;9.20;6.33;;;;;;;;;;774936;180;890228;-59
2023/09/03 03:55:59;;;;;;;9.93;6.73;;;;;;;;;;774183;180;900188;-60
2023/09/03 03:58:25;;;;;;;8.37;6.57;;;;;;;;;;779564;178;917707;-64
2023/09/03 04:00:51;;;;;;;9.23;6.70;;;;;;;;;;773854;178;920819;-60
2023/09/03 04:03:17;;;;;;;15.27;10.50;;;;;;;;;;773398;178;916093;-60
2023/09/03 04:05:43;;;;;;;17.97;12.03;;;;;;;;;;772880;179;925146;-60
2023/09/03 04:08:09;;;;;;;11.67;8.60;;;;;;;;;;769760;177;918126;-61
2023/09/03 04:10:34;;;;;;;9.77;7.07;;;;;;;;;;773826;180;935349;-65
2023/09/03 04:13:00;;;;;;;10.03;7.40;;;;;;;;;;778459;179;819324;-60
2023/09/03 04:15:26;;;;;;;9.63;6.90;;;;;;;;;;772533;179;818129;-60
2023/09/03 04:17:52;;;;;;;15.00;7.37;;;;;;;;;;772811;180;919230;-64
2023/09/03 04:20:18;;;;;;;14.43;8.27;;;;;;;;;;770840;180;919603;-60
2023/09/03 04:22:44;;;;;;;7.90;6.13;;;;;;;;;;763796;183;816898;-60
2023/09/03 04:25:09;;;;;;;8.70;6.13;;;;;;;;;;765983;177;923364;-64
2023/09/03 04:27:35;;;;;;;11.27;6.53;;;;;;;;;;766029;180;914855;-61
2023/09/03 04:30:01;;;;;;;7.43;6.30;;;;;;;;;;778608;181;919031;-58
2023/09/03 04:32:27;;;;;;;8.57;6.57;;;;;;;;;;775176;178;914813;-61
2023/09/03 04:34:53;;;;;;;7.50;5.77;;;;;;;;;;774071;179;914497;-60
2023/09/03 04:37:19;;;;;;;12.43;6.27;;;;;;;;;;775234;179;916826;-65
2023/09/03 04:39:44;;;;;;;8.67;6.20;;;;;;;;;;775852;180;919346;-61
2023/09/03 04:42:10;;;;;;;8.47;6.00;;;;;;;;;;770637;179;918388;-60
2023/09/03 04:44:39;;;;;;;10.20;5.87;;;;;;;;;;776315;181;924098;-65
2023/09/03 04:47:02;;;;;;;9.50;7.10;;;;;;;;;;764781;181;918941;-64
2023/09/03 04:49:28;;;;;;;7.45;5.93;;;;;;;;;;775774;180;908478;-59
2023/09/03 04:51:54;;;;;;;9.63;5.93;;;;;;;;;;774427;180;918434;-60
2023/09/03 04:54:19;;;;;;;9.30;6.30;;;;;;;;;;781775;180;918890;-60
2023/09/03 04:56:45;;;;;;;7.00;6.30;;;;;;;;;;776017;179;918844;-60
2023/09/03 04:59:11;;;;;;;7.07;6.00;;;;;;;;;;764233;180;919784;-62
2023/09/03 05:01:37;;;;;;;8.57;6.23;;;;;;;;;;776196;180;921155;-64
2023/09/03 05:04:04;;;;;;;10.97;7.20;;;;;;;;;;777434;180;818478;-59
2023/09/03 05:06:29;;;;;;;9.93;6.83;;;;;;;;;;774671;179;824048;-63
2023/09/03 05:08:55;;;;;;;12.30;6.80;;;;;;;;;;777230;178;919540;-63
2023/09/03 05:11:21;;;;;;;8.00;6.37;;;;;;;;;;775245;180;918789;-60
2023/09/03 05:13:46;;;;;;;12.60;7.17;;;;;;;;;;770229;180;1020241;-60
2023/09/03 05:16:12;;;;;;;7.90;6.00;;;;;;;;;;772903;180;918691;-65
2023/09/03 05:18:38;;;;;;;12.43;6.90;;;;;;;;;;780700;178;918819;-63
2023/09/03 05:21:06;;;;;;;9.27;6.00;;;;;;;;;;772275;181;923338;-64
2023/09/03 05:23:31;;;;;;;10.40;7.10;;;;;;;;;;774405;180;919371;-60
2023/09/03 05:25:57;;;;;;;9.60;6.77;;;;;;;;;;774175;181;921471;-65
2023/09/03 05:28:23;;;;;;;7.67;6.10;;;;;;;;;;774469;181;921360;-64
2023/09/03 05:30:49;;;;;;;9.63;6.63;;;;;;;;;;769017;177;921234;-60
2023/09/03 05:33:15;;;;;;;9.10;5.77;;;;;;;;;;766961;181;919166;-59
2023/09/03 05:35:41;;;;;;;10.80;5.93;;;;;;;;;;773313;180;884123;-58
2023/09/03 05:38:07;;;;;;;10.50;6.40;;;;;;;;;;774673;178;816853;-64
2023/09/03 05:40:32;;;;;;;7.87;6.00;;;;;;;;;;775344;181;919291;-64
2023/09/03 05:42:58;;;;;;;9.37;6.23;;;;;;;;;;773572;177;919157;-59
2023/09/03 05:45:24;;;;;;;6.73;5.50;;;;;;;;;;776917;177;919634;-63
2023/09/03 05:47:50;;;;;;;8.03;6.37;;;;;;;;;;776163;180;812762;-59
2023/09/03 05:50:16;;;;;;;8.80;6.40;;;;;;;;;;780466;177;916627;-59
2023/09/03 05:52:42;;;;;;;7.63;6.00;;;;;;;;;;763675;181;925214;-59
2023/09/03 05:55:08;;;;;;;9.03;6.80;;;;;;;;;;769383;181;916433;-59
2023/09/03 05:57:33;;;;;;;11.30;5.73;;;;;;;;;;776611;181;915670;-63
2023/09/03 05:59:59;;;;;;;7.33;5.97;;;;;;;;;;773347;181;919789;-63
2023/09/03 06:02:25;;;;;;;8.40;5.87;;;;;;;;;;772001;180;868380;-64
2023/09/03 06:04:51;;;;;;;9.03;6.60;;;;;;;;;;775202;180;920545;-64
2023/09/03 06:07:17;;;;;;;6.60;5.63;;;;;;;;;;772081;177;917294;-63
2023/09/03 06:09:45;;;;;;;7.97;6.47;;;;;;;;;;765397;180;920940;-63
2023/09/03 06:12:09;;;;;;;9.40;5.63;;;;;;;;;;760399;181;922109;-59
2023/09/03 06:14:35;;;;;;;9.30;6.60;;;;;;;;;;775397;180;816901;-63
2023/09/03 06:17:03;;;;;;;8.47;5.83;;;;;;;;;;774237;180;919607;-64
2023/09/03 06:19:27;;;;;;;8.47;6.53;;;;;;;;;;771380;181;926203;-62
2023/09/03 06:21:53;;;;;;;7.57;6.00;;;;;;;;;;780046;181;918445;-63
2023/09/03 06:24:19;;;;;;;9.43;6.00;;;;;;;;;;775529;179;920238;-63
2023/09/03 06:26:45;;;;;;;8.00;6.07;;;;;;;;;;775423;180;919342;-58
2023/09/03 06:29:11;;;;;;;8.97;6.20;;;;;;;;;;778507;180;918295;-64
2023/09/03 06:31:36;;;;;;;8.13;6.37;;;;;;;;;;771190;180;919527;-62
2023/09/03 06:34:02;;;;;;;7.50;6.40;;;;;;;;;;774057;181;921060;-63
2023/09/03 06:36:28;;;;;;;10.37;6.83;;;;;;;;;;771709;179;911793;-62
2023/09/03 06:38:54;;;;;;;7.30;5.73;;;;;;;;;;767491;179;915096;-64
2023/09/03 06:41:20;;;;;;;8.40;6.53;;;;;;;;;;773026;181;913527;-59
2023/09/03 06:43:45;;;;;;;7.85;6.07;;;;;;;;;;771507;180;920873;-65
2023/09/03 06:46:11;;;;;;;8.50;6.50;;;;;;;;;;773701;181;943677;-63
2023/09/03 06:48:37;;;;;;;7.93;6.23;;;;;;;;;;772208;181;876226;-59
2023/09/03 06:51:03;;;;;;;6.70;5.83;;;;;;;;;;772158;180;818979;-58
2023/09/03 06:53:29;;;;;;;7.57;6.37;;;;;;;;;;773854;177;912280;-58
2023/09/03 06:55:55;;;;;;;7.40;5.43;;;;;;;;;;772690;179;932607;-63
2023/09/03 06:58:20;;;;;;;10.10;6.27;;;;;;;;;;775318;177;921664;-64
2023/09/03 07:00:46;;;;;;;8.23;6.40;;;;;;;;;;782022;179;913592;-64
2023/09/03 07:03:12;;;;;;;7.30;6.18;;;;;;;;;;773065;177;711461;-63
2023/09/03 07:05:38;;;;;;;12.07;6.67;;;;;;;;;;759352;178;812482;-64
2023/09/03 07:08:04;;;;;;;8.03;5.70;;;;;;;;;;769709;180;916499;-63
2023/09/03 07:10:31;;;;;;;8.37;6.10;;;;;;;;;;768430;181;912242;-62
2023/09/03 07:12:56;;;;;;;10.77;6.37;;;;;;;;;;767017;180;918619;-59
2023/09/03 07:15:22;;;;;;;7.50;6.50;;;;;;;;;;771585;180;919441;-59
2023/09/03 07:17:47;;;;;;;8.23;6.27;;;;;;;;;;775521;181;915441;-62
2023/09/03 07:20:13;;;;;;;7.30;6.30;;;;;;;;;;776975;180;836826;-58
2023/09/03 07:22:40;;;;;;;7.97;7.13;;;;;;;;;;766336;180;914822;-59
2023/09/03 07:25:05;;;;;;;9.20;7.30;;;;;;;;;;766954;181;910444;-63
2023/09/03 07:27:31;;;;;;;8.77;6.70;;;;;;;;;;772340;179;914806;-62
2023/09/03 07:29:57;;;;;;;8.60;6.90;;;;;;;;;;770017;180;937355;-62
2023/09/03 07:32:23;;;;;;;8.70;7.17;;;;;;;;;;773683;178;919599;-58
2023/09/03 07:34:49;;;;;;;8.30;7.27;;;;;;;;;;773637;180;918131;-59
2023/09/03 07:37:15;;;;;;;7.27;6.40;;;;;;;;;;772123;179;958564;-64
2023/09/03 07:39:41;;;;;;;10.37;7.37;;;;;;;;;;773975;180;919200;-62
2023/09/03 07:42:06;;;;;;;8.17;6.60;;;;;;;;;;776029;180;919267;-63
2023/09/03 07:44:32;;;;;;;9.40;7.63;;;;;;;;;;772747;177;921117;-58
2023/09/03 07:46:58;;;;;;;8.47;7.20;;;;;;;;;;772837;180;918876;-59
2023/09/03 07:49:24;;;;;;;6.80;6.10;;;;;;;;;;778302;180;768346;-63
2023/09/03 07:51:50;;;;;;;8.20;6.93;;;;;;;;;;773574;180;918823;-61
2023/09/03 07:54:16;;;;;;;8.10;7.00;;;;;;;;;;770503;181;916938;-63
2023/09/03 07:56:41;;;;;;;11.80;7.17;;;;;;;;;;774473;181;916921;-63
2023/09/03 07:59:07;;;;;;;8.07;6.83;;;;;;;;;;782492;180;918719;-64
2023/09/03 08:01:33;;;;;;;7.43;6.70;;;;;;;;;;777041;180;919251;-57
2023/09/03 08:03:59;;;;;;;8.10;6.13;;;;;;;;;;776969;180;618840;-59
2023/09/03 08:06:25;;;;;;;9.30;5.63;;;;;;;;;;777151;177;637560;-64
2023/09/03 08:08:54;;;;;;;9.47;6.97;;;;;;;;;;766628;179;620794;-58
2023/09/03 08:11:17;;;;;;;11.03;6.57;;;;;;;;;;776794;177;620576;-62
2023/09/03 08:13:43;;;;;;;8.40;7.50;;;;;;;;;;784491;177;638599;-64
2023/09/03 08:16:09;;;;;;;7.80;6.77;;;;;;;;;;775312;180;919389;-63
2023/09/03 08:18:35;;;;;;;6.87;5.83;;;;;;;;;;768415;179;919648;-62
2023/09/03 08:21:01;;;;;;;6.25;5.65;;;;;;;;;;776299;181;919272;-64
2023/09/03 08:23:28;;;;;;;6.10;5.37;;;;;;;;;;776727;180;886141;-63
2023/09/03 08:25:53;;;;;;;5.67;4.73;;;;;;;;;;775539;181;919482;-58
2023/09/03 08:28:19;;;;;;;6.93;5.47;;;;;;;;;;771746;181;919423;-58
2023/09/03 08:30:47;;;;;;;6.23;5.47;;;;;;;;;;778023;178;816360;-64
2023/09/03 08:33:11;;;;;;;7.83;5.60;;;;;;;;;;774379;179;921156;-63
2023/09/03 08:35:37;;;;;;;7.50;5.03;;;;;;;;;;776132;180;919545;-63
2023/09/03 08:38:03;;;;;;;7.57;5.50;;;;;;;;;;777185;180;816280;-62
2023/09/03 08:40:28;;;;;;;6.07;5.00;;;;;;;;;;775053;179;623018;-59
2023/09/03 08:42:54;;;;;;;9.13;6.00;;;;;;;;;;773805;180;631918;-59
2023/09/03 08:45:20;;;;;;;6.67;5.97;;;;;;;;;;778217;177;613732;-58
2023/09/03 08:47:46;;;;;;;6.50;5.40;;;;;;;;;;772542;177;754110;-58
2023/09/03 08:50:11;;;;;;;8.63;5.03;;;;;;;;;;759104;180;921995;-58
2023/09/03 08:52:37;;;;;;;5.68;4.87;;;;;;;;;;754830;184;919308;-58
2023/09/03 08:55:04;;;;;;;7.13;4.30;;;;;;;;;;772485;181;919279;-63
2023/09/03 08:57:30;;;;;;;5.40;4.10;;;;;;;;;;766705;180;877405;-60
2023/09/03 08:59:56;;;;;;;5.47;4.67;;;;;;;;;;773416;177;816816;-58
2023/09/03 09:02:21;;;;;;;5.67;4.87;;;;;;;;;;779761;180;919832;-58
2023/09/03 09:04:48;;;;;;;4.30;3.57;;;;;;;;;;773072;180;919442;-63
2023/09/03 09:07:14;;;;;;;5.70;4.23;;;;;;;;;;773325;180;858837;-57
2023/09/03 09:09:40;;;;;;;4.23;3.33;;;;;;;;;;780232;180;859146;-63
2023/09/03 09:12:22;;;;;;;6.63;3.57;;;;;;;;;;773494;181;920889;-63
2023/09/03 09:15:03;;;;;;;4.67;4.07;;;;;;;;;;766235;181;918522;-58
2023/09/03 09:17:28;;;;;;;5.50;3.40;;;;;;;;;;775349;179;922125;-64
2023/09/03 09:19:57;;;;;;;3.90;3.17;;;;;;;;;;775441;179;919268;-59
2023/09/03 09:22:23;;;;;;;5.43;3.50;;;;;;;;;;771567;176;918749;-59
2023/09/03 09:24:49;;;;;;;4.80;3.53;;;;;;;;;;781544;180;917478;-60
2023/09/03 09:27:15;;;;;;;4.30;3.00;;;;;;;;;;771254;180;918494;-62
2023/09/03 09:29:41;;;;;;;4.73;3.17;;;;;;;;;;775834;179;819860;-62
2023/09/03 09:32:20;;;;;;;4.00;3.00;;;;;;;;;;773333;181;928666;-58
2023/09/03 09:34:46;;;;;;;3.30;2.60;;;;;;;;;;775175;180;919543;-58
2023/09/03 09:37:13;;;;;;;3.77;2.50;;;;;;;;;;768746;178;919644;-62
2023/09/03 09:39:43;;;;;;;4.60;2.67;;;;;;;;;;770272;180;918427;-59
2023/09/03 09:42:10;;;;;;;4.17;2.57;;;;;;;;;;775388;181;860609;-58
2023/09/03 09:44:34;;;;;;;3.60;2.47;;;;;;;;;;774701;180;913449;-62
2023/09/03 09:47:00;;;;;;;4.53;2.80;;;;;;;;;;772015;181;915538;-58
2023/09/03 09:49:26;;;;;;;3.20;2.20;;;;;;;;;;774008;180;920387;-59
2023/09/03 09:51:53;;;;;;;3.60;2.63;;;;;;;;;;767276;178;916197;-60
2023/09/03 09:54:18;;;;;;;4.13;2.80;;;;;;;;;;772150;178;917483;-59
2023/09/03 09:56:44;;;;;;;5.03;3.37;;;;;;;;;;773554;177;922537;-59
2023/09/03 09:59:10;;;;;;;5.23;3.30;;;;;;;;;;776019;180;913607;-64
2023/09/03 10:01:41;;;;;;;4.23;2.73;;;;;;;;;;772516;177;916356;-59
2023/09/03 10:04:07;;;;;;;6.73;3.03;;;;;;;;;;771150;180;921721;-65
2023/09/03 10:06:34;;;;;;;5.87;3.00;;;;;;;;;;778100;180;923622;-64
2023/09/03 10:09:00;;;;;;;3.53;2.77;;;;;;;;;;769125;181;917683;-60
2023/09/03 10:11:26;;;;;;;4.97;3.00;;;;;;;;;;767525;181;919738;-59
2023/09/03 10:13:52;;;;;;;4.37;3.10;;;;;;;;;;770186;177;873580;-59
2023/09/03 10:16:18;;;;;;;4.10;2.87;;;;;;;;;;773090;181;919106;-59
2023/09/03 10:18:44;;;;;;;4.33;3.40;;;;;;;;;;765780;182;920461;-64
2023/09/03 10:21:10;;;;;;;3.47;2.83;;;;;;;;;;769633;180;920769;-65
2023/09/03 10:23:36;;;;;;;4.70;3.13;;;;;;;;;;778217;180;823582;-59
2023/09/03 10:26:02;;;;;;;3.70;2.60;;;;;;;;;;769893;181;919448;-63
2023/09/03 10:28:27;;;;;;;5.87;3.73;;;;;;;;;;770262;181;921308;-63
2023/09/03 10:30:54;;;;;;;3.80;2.90;;;;;;;;;;774173;179;819149;-57
2023/09/03 10:33:19;;;;;;;3.77;3.10;;;;;;;;;;762158;181;915774;-59
2023/09/03 10:36:05;;;;;;;4.60;3.03;;;;;;;;;;770628;179;918477;-59
2023/09/03 10:38:31;;;;;;;5.60;2.97;;;;;;;;;;774616;179;920368;-64
2023/09/03 10:40:56;;;;;;;4.03;3.15;;;;;;;;;;775557;180;919180;-62
2023/09/03 10:43:23;;;;;;;4.17;3.27;;;;;;;;;;779974;180;815541;-59
2023/09/03 10:45:54;;;;;;;6.00;3.77;;;;;;;;;;773703;177;920098;-60
2023/09/03 10:48:21;;;;;;;3.80;2.67;;;;;;;;;;776654;180;824653;-58
2023/09/03 10:50:48;;;;;;;3.63;2.57;;;;;;;;;;775153;178;918345;-62
2023/09/03 10:53:18;;;;;;;3.43;2.60;;;;;;;;;;768023;181;816145;-63
2023/09/03 10:55:44;;;;;;;3.63;2.77;;;;;;;;;;747881;184;918803;-59
2023/09/03 10:58:25;;;;;;;6.50;3.03;;;;;;;;;;733793;188;918929;-57
2023/09/03 11:01:08;;;;;;;3.80;2.93;;;;;;;;;;758498;182;916487;-63
2023/09/03 11:03:40;;;;;;;3.63;2.73;;;;;;;;;;769784;180;914877;-63
2023/09/03 11:06:11;;;;;;;7.43;3.83;;;;;;;;;;770856;180;918608;-59
2023/09/03 11:08:39;;;;;;;3.87;2.77;;;;;;;;;;774823;177;918771;-64
2023/09/03 11:11:03;;;;;;;4.93;3.50;;;;;;;;;;773542;178;918820;-58
2023/09/03 11:13:29;;;;;;;4.70;3.20;;;;;;;;;;769052;178;918757;-63
2023/09/03 11:15:56;;;;;;;4.47;2.50;;;;;;;;;;769992;181;921188;-59
2023/09/03 11:18:22;;;;;;;4.30;3.00;;;;;;;;;;768725;177;918965;-58
2023/09/03 11:20:48;;;;;;;4.50;2.90;;;;;;;;;;771677;179;921617;-63
2023/09/03 11:23:14;;;;;;;4.60;2.97;;;;;;;;;;771664;180;922725;-63
2023/09/03 11:25:40;;;;;;;3.90;3.03;;;;;;;;;;766541;182;940513;-64
2023/09/03 11:28:07;;;;;;;7.30;3.10;;;;;;;;;;773340;180;919461;-59
2023/09/03 11:30:31;;;;;;;4.57;3.07;;;;;;;;;;773066;180;913223;-63
2023/09/03 11:32:57;;;;;;;4.70;2.90;;;;;;;;;;778267;180;919795;-64
2023/09/03 11:35:23;;;;;;;14.50;3.70;;;;;;;;;;771588;180;913121;-62
2023/09/03 11:37:49;;;;;;;3.13;2.33;;;;;;;;;;771669;179;918300;-63
2023/09/03 11:40:14;;;;;;;4.17;3.20;;;;;;;;;;777832;178;854667;-62
2023/09/03 11:42:41;;;;;;;5.30;3.00;;;;;;;;;;775418;179;919438;-64
2023/09/03 11:45:08;;;;;;;3.77;2.87;;;;;;;;;;776010;179;919491;-60
2023/09/03 11:47:35;;;;;;;4.23;2.93;;;;;;;;;;779195;177;917836;-58
2023/09/03 11:50:08;;;;;;;3.60;2.70;;;;;;;;;;777975;180;918979;-59
2023/09/03 11:52:33;;;;;;;6.20;3.00;;;;;;;;;;778493;179;655389;-59
2023/09/03 11:54:59;;;;;;;5.33;2.37;;;;;;;;;;773445;180;838959;-59
2023/09/03 11:57:25;;;;;;;3.73;2.67;;;;;;;;;;780153;181;813142;-60
2023/09/03 11:59:51;;;;;;;5.00;2.97;;;;;;;;;;769328;180;919885;-66
2023/09/03 12:02:16;;;;;;;3.50;2.60;;;;;;;;;;771267;181;877321;-61
2023/09/03 12:04:42;;;;;;;4.13;2.73;;;;;;;;;;769656;178;919693;-63
2023/09/03 12:07:13;;;;;;;3.80;2.70;;;;;;;;;;771851;181;847134;-64
2023/09/03 12:09:39;;;;;;;3.90;2.40;;;;;;;;;;771503;180;919413;-63
2023/09/03 12:12:05;;;;;;;6.10;2.83;;;;;;;;;;772419;180;816215;-64
2023/09/03 12:14:31;;;;;;;6.77;2.83;;;;;;;;;;774917;180;917651;-59
2023/09/03 12:16:57;;;;;;;3.90;2.73;;;;;;;;;;770792;180;914512;-59
2023/09/03 12:19:23;;;;;;;3.70;2.83;;;;;;;;;;770298;178;858711;-59
2023/09/03 12:21:51;;;;;;;3.77;2.60;;;;;;;;;;775014;181;919030;-63
2023/09/03 12:24:17;;;;;;;5.40;2.90;;;;;;;;;;773796;180;918351;-63
2023/09/03 12:26:42;;;;;;;5.70;3.30;;;;;;;;;;772965;180;919010;-59
2023/09/03 12:29:14;;;;;;;3.17;2.67;;;;;;;;;;766813;181;1021883;-63
2023/09/03 12:31:41;;;;;;;4.97;3.50;;;;;;;;;;769207;181;918790;-59
2023/09/03 12:34:08;;;;;;;4.73;3.30;;;;;;;;;;775803;178;825556;-63
2023/09/03 12:36:33;;;;;;;3.50;2.90;;;;;;;;;;772883;180;918803;-60
2023/09/03 12:38:59;;;;;;;4.87;2.60;;;;;;;;;;764063;181;815760;-60
2023/09/03 12:41:25;;;;;;;4.50;2.67;;;;;;;;;;771031;181;915126;-59
2023/09/03 12:43:51;;;;;;;3.90;2.60;;;;;;;;;;772210;181;917795;-58
2023/09/03 12:46:17;;;;;;;4.57;2.70;;;;;;;;;;772265;180;918683;-58
2023/09/03 12:48:44;;;;;;;5.00;2.50;;;;;;;;;;773516;181;911798;-60
2023/09/03 12:51:10;;;;;;;5.00;2.77;;;;;;;;;;774430;180;869858;-59
2023/09/03 12:53:35;;;;;;;6.13;3.00;;;;;;;;;;773502;179;723245;-58
2023/09/03 12:56:01;;;;;;;3.93;2.70;;;;;;;;;;780363;180;919264;-59
2023/09/03 12:58:27;;;;;;;3.90;2.90;;;;;;;;;;766936;181;920588;-59
2023/09/03 13:00:53;;;;;;;5.17;3.57;;;;;;;;;;774052;180;918670;-59
2023/09/03 13:03:19;;;;;;;5.25;2.75;;;;;;;;;;775086;180;919438;-62
2023/09/03 13:05:44;;;;;;;4.33;3.00;;;;;;;;;;776754;180;913008;-63
2023/09/03 13:08:10;;;;;;;3.37;2.80;;;;;;;;;;774471;181;890190;-63
2023/09/03 13:10:36;;;;;;;3.93;2.77;;;;;;;;;;775034;180;914416;-63
2023/09/03 13:13:02;;;;;;;5.13;2.83;;;;;;;;;;780250;180;818552;-59
2023/09/03 13:15:28;;;;;;;4.80;3.13;;;;;;;;;;774266;177;851415;-59
2023/09/03 13:17:54;;;;;;;4.60;3.27;;;;;;;;;;775401;178;911956;-62
2023/09/03 13:20:20;;;;;;;3.90;2.90;;;;;;;;;;777810;180;811770;-62
2023/09/03 13:22:45;;;;;;;9.20;3.10;;;;;;;;;;773558;181;913513;-69
2023/09/03 13:25:11;;;;;;;6.73;3.80;;;;;;;;;;768455;180;920770;-70
2023/09/03 13:27:37;;;;;;;13.00;4.07;;;;;;;;;;774194;178;920926;-69
2023/09/03 13:30:03;;;;;;;16.13;6.43;;;;;;;;;;773562;178;900654;-62
2023/09/03 13:32:31;;;;;;;12.40;6.00;;;;;;;;;;769120;180;919210;-67
2023/09/03 13:34:55;;;;;;;18.50;9.40;;;;;;;;;;767098;181;912272;-62
2023/09/03 13:37:21;;;;;;;14.47;6.03;;;;;;;;;;772151;180;917176;-61
2023/09/03 13:39:47;;;;;;;10.93;6.47;;;;;;;;;;757594;180;919941;-63
2023/09/03 13:42:12;;;;;;;9.63;5.00;;;;;;;;;;772927;180;920608;-62
2023/09/03 13:44:38;;;;;;;8.60;6.30;;;;;;;;;;778562;180;816684;-63
2023/09/03 13:47:05;;;;;;;7.33;3.53;;;;;;;;;;769030;180;917879;-68
2023/09/03 13:49:30;;;;;;;6.47;4.00;;;;;;;;;;765888;181;921883;-67
2023/09/03 13:51:56;;;;;;;7.10;4.70;;;;;;;;;;772167;181;918943;-67
2023/09/03 13:54:22;;;;;;;7.00;4.70;;;;;;;;;;774523;181;917743;-67
2023/09/03 13:56:48;;;;;;;9.18;4.62;;;;;;;;;;771967;177;916921;-62
2023/09/03 13:59:13;;;;;;;5.60;4.03;;;;;;;;;;773837;178;918339;-65
2023/09/03 14:01:39;;;;;;;5.80;4.60;;;;;;;;;;773198;180;917556;-62
2023/09/03 14:04:05;;;;;;;9.23;4.80;;;;;;;;;;760594;181;915628;-61
2023/09/03 14:06:31;;;;;;;5.40;4.43;;;;;;;;;;770674;180;922666;-61
2023/09/03 14:08:57;;;;;;;5.60;4.13;;;;;;;;;;780335;181;918432;-64
2023/09/03 14:11:23;;;;;;;7.20;4.30;;;;;;;;;;770245;180;816998;-63
2023/09/03 14:13:49;;;;;;;8.17;5.13;;;;;;;;;;776482;177;818222;-61
2023/09/03 14:16:15;;;;;;;6.57;4.00;;;;;;;;;;779823;180;920547;-63
2023/09/03 14:18:41;;;;;;;5.30;4.18;;;;;;;;;;774496;178;920061;-63
2023/09/03 14:21:07;;;;;;;4.37;3.80;;;;;;;;;;774103;180;1021049;-63
2023/09/03 14:23:33;;;;;;;4.27;3.70;;;;;;;;;;779393;180;922684;-63